Lionhead Wind

Lionhead weather stationLocated on Lionhead Ridge near West Yellowstone. Use the nearest SNOTEL station for snow depth data: Madison Plateau. The data on this page is also available to view at dataGarrison.com.

Elevation
9420ft
Jump to table bottom
Date Time Temperature
deg F
RH, % Wind Speed Wind Gust Wind Direction Pressure Light
02/29/24 07:00 15.1 95 32 48 SW - 247 709.020 0
02/29/24 06:00 13.4 94 31 45 SW - 244 709.480 0
02/29/24 05:00 13.2 94 27 40 W - 248 709.980 0
02/29/24 04:00 13.2 94 24 36 W - 251 710.700 0
02/29/24 03:00 13.2 94 26 37 W - 251 710.760 0
02/29/24 02:00 12.9 94 24 36 W - 256 711.200 0
02/29/24 01:00 13.0 94 25 36 W - 251 712.220 0
02/29/24 00:00 12.6 94 20 30 SW - 246 712.240 0
02/28/24 23:00 12.2 94 23 34 W - 258 712.660 0
02/28/24 22:00 12.0 94 24 36 SW - 246 712.660 0
02/28/24 21:00 12.1 94 24 34 W - 253 712.920 0
02/28/24 20:00 12.0 94 21 33 W - 251 712.420 0
02/28/24 19:00 12.1 94 20 29 W - 248 712.860 0
02/28/24 18:00 11.6 94 20 29 W - 250 712.740 0
02/28/24 17:00 11.8 94 17 29 W - 256 712.860 0
02/28/24 16:00 13.3 94 12 25 W - 272 713.200 0
02/28/24 15:00 13.3 94 13 27 W - 279 712.920 0
02/28/24 14:00 13.9 94 18 29 W - 260 713.220 0
02/28/24 13:00 11.7 94 20 30 SW - 243 713.000 0
02/28/24 12:00 11.1 94 25 34 W - 254 713.300 0
02/28/24 11:00 11.1 93 27 38 W - 261 713.160 0
02/28/24 10:00 9.4 93 27 37 W - 261 713.160 0
02/28/24 09:00 7.0 93 27 41 W - 254 712.440 0
02/28/24 08:00 5.5 92 23 32 W - 250 712.520 0
02/28/24 07:00 3.6 92 17 26 W - 257 712.880 0
02/28/24 06:00 2.5 92 17 26 SW - 240 712.540 0
02/28/24 05:00 2.5 92 24 35 SW - 244 711.760 0
02/28/24 04:00 2.3 92 23 31 SW - 244 711.400 0
02/28/24 03:00 1.3 91 22 29 SW - 237 711.080 0
02/28/24 02:00 0.5 91 24 37 SW - 243 711.200 0
02/28/24 01:00 0.4 91 24 34 W - 250 710.740 0
02/28/24 00:00 -1.4 91 25 35 SW - 246 710.100 0
02/27/24 23:00 0.4 91 24 43 W - 261 709.740 0
02/27/24 22:00 0.1 91 11 40 NW - 295 709.520 0
02/27/24 21:00 -0.4 91 12 44 NW - 302 709.260 0
02/27/24 20:00 -0.3 91 19 45 W - 285 707.900 0
02/27/24 19:00 -0.6 91 17 49 W - 288 707.700 0
02/27/24 18:00 -0.6 91 14 43 W - 286 707.500 0
02/27/24 17:00 0.9 91 16 45 W - 288 707.200 0
02/27/24 16:00 2.8 91 22 48 W - 286 706.160 0
02/27/24 15:00 4.0 91 8 43 NW - 314 705.120 0
02/27/24 14:00 4.0 92 7 27 NW - 313 705.320 0
02/27/24 13:00 3.8 92 14 36 W - 285 704.740 0
02/27/24 12:00 5.3 92 20 32 W - 277 704.320 0
02/27/24 11:00 8.1 92 13 25 W - 274 704.020 0
02/27/24 10:00 5.9 91 13 22 W - 278 703.560 0
02/27/24 09:00 3.1 91 9 19 W - 278 703.200 0
02/27/24 08:00 0.9 91 7 16 W - 291 702.820 0
02/27/24 07:00 -0.6 91 11 25 W - 284 702.040 0
02/27/24 06:00 -0.8 91 6 30 NW - 321 701.500 0